createdAt,value
2022-08-19T00:01:45.234Z,100567.16
2022-08-19T00:04:28.518Z,100550.19
2022-08-19T00:07:00.354Z,100533.81
2022-08-19T00:09:32.310Z,100560.75
2022-08-19T00:12:04.094Z,100568.16
2022-08-19T00:14:35.744Z,100566.50
2022-08-19T00:17:08.979Z,100568.44
2022-08-19T00:19:41.523Z,100573.31
2022-08-19T00:22:12.873Z,100570.19
2022-08-19T00:24:50.878Z,100575.06
2022-08-19T00:27:25.532Z,100586.81
2022-08-19T00:29:59.776Z,100583.94
2022-08-19T00:32:31.321Z,100574.63
2022-08-19T00:35:04.682Z,100575.13
2022-08-19T00:37:36.343Z,100580.06
2022-08-19T00:40:08.598Z,100560.25
2022-08-19T00:42:40.528Z,100566.31
2022-08-19T00:45:18.185Z,100562.00
2022-08-19T00:47:49.765Z,100569.28
2022-08-19T00:50:22.039Z,100560.25
2022-08-19T00:52:53.688Z,100567.19
2022-08-19T00:55:28.950Z,100563.53
2022-08-19T00:58:09.995Z,100572.78
2022-08-19T01:00:41.837Z,100570.06
2022-08-19T01:03:16.444Z,100563.91
2022-08-19T01:05:52.817Z,100565.72
2022-08-19T01:08:24.372Z,100563.91
2022-08-19T01:11:00.360Z,100552.44
2022-08-19T01:13:48.885Z,100550.03
2022-08-19T01:16:24.744Z,100555.41
2022-08-19T01:18:57.543Z,100547.59
2022-08-19T01:21:41.354Z,100549.59
2022-08-19T01:24:12.742Z,100548.75
2022-08-19T01:26:45.286Z,100547.09
2022-08-19T01:29:18.066Z,100542.75
2022-08-19T01:31:50.082Z,100539.38
2022-08-19T01:34:21.392Z,100537.63
2022-08-19T01:36:52.723Z,100530.69
2022-08-19T01:39:25.908Z,100523.66
2022-08-19T01:41:57.348Z,100530.31
2022-08-19T01:44:28.703Z,100524.31
2022-08-19T01:47:00.221Z,100519.22
2022-08-19T01:49:31.612Z,100528.06
2022-08-19T01:52:03.870Z,100516.59
2022-08-19T01:54:35.330Z,100519.91
2022-08-19T01:57:12.170Z,100527.41
2022-08-19T01:59:45.906Z,100524.72
2022-08-19T02:02:17.508Z,100512.59
2022-08-19T02:04:48.867Z,100512.69
2022-08-19T02:07:22.546Z,100508.00
2022-08-19T02:09:53.834Z,100507.22
2022-08-19T02:12:25.287Z,100492.47
2022-08-19T02:14:56.669Z,100498.03
2022-08-19T02:17:29.817Z,100500.81
2022-08-19T02:20:01.334Z,100494.81
2022-08-19T02:22:33.718Z,100501.94
2022-08-19T02:25:05.816Z,100487.94
2022-08-19T02:27:37.258Z,100501.06
2022-08-19T02:30:14.223Z,100500.25
2022-08-19T02:32:45.941Z,100498.53
2022-08-19T02:35:17.694Z,100487.75
2022-08-19T02:38:07.518Z,100487.44
2022-08-19T02:40:38.854Z,100475.97
2022-08-19T02:43:10.208Z,100475.81
2022-08-19T02:45:41.762Z,100474.06
2022-08-19T02:48:21.294Z,100483.09
2022-08-19T02:50:56.281Z,100490.31
2022-08-19T02:53:29.158Z,100488.63
2022-08-19T02:56:00.597Z,100493.88
2022-08-19T02:58:31.918Z,100499.34
2022-08-19T03:01:03.620Z,100499.25
2022-08-19T03:03:35.006Z,100508.03
2022-08-19T03:06:08.977Z,100516.59
2022-08-19T03:08:45.558Z,100514.44
2022-08-19T03:11:27.057Z,100514.34
2022-08-19T03:14:00.920Z,100512.59
2022-08-19T03:16:34.832Z,100507.56
2022-08-19T03:19:06.129Z,100518.34
2022-08-19T03:21:37.458Z,100514.97
2022-08-19T03:24:09.500Z,100516.69
2022-08-19T03:26:46.499Z,100511.41
2022-08-19T03:29:30.901Z,100521.13
2022-08-19T03:32:05.426Z,100530.25
2022-08-19T03:34:39.010Z,100516.78
2022-08-19T03:37:15.629Z,100514.09
2022-08-19T03:39:46.947Z,100518.69
2022-08-19T03:42:38.913Z,100510.03
2022-08-19T03:45:11.167Z,100509.25
2022-08-19T03:47:42.592Z,100511.28
2022-08-19T03:50:13.917Z,100514.16
2022-08-19T03:52:51.310Z,100510.50
2022-08-19T03:55:22.733Z,100507.22
2022-08-19T03:57:58.605Z,100514.94
2022-08-19T04:00:30.536Z,100506.19
2022-08-19T04:03:01.924Z,100513.56
2022-08-19T04:05:33.358Z,100507.56
2022-08-19T04:08:09.600Z,100508.34
2022-08-19T04:10:43.359Z,100514.50
2022-08-19T04:13:19.003Z,100508.25
2022-08-19T04:15:50.671Z,100520.06
2022-08-19T04:18:21.966Z,100531.34
2022-08-19T04:20:53.276Z,100534.03
2022-08-19T04:23:24.810Z,100533.09
2022-08-19T04:25:56.992Z,100525.28
2022-08-19T04:28:29.726Z,100532.41
2022-08-19T04:31:01.041Z,100543.34
2022-08-19T04:33:32.333Z,100537.94
2022-08-19T04:36:03.942Z,100528.16
2022-08-19T04:38:35.222Z,100547.84
2022-08-19T04:41:25.262Z,100540.72
2022-08-19T04:43:58.413Z,100545.75
2022-08-19T04:46:40.053Z,100548.38
2022-08-19T04:49:23.763Z,100550.28
2022-08-19T04:51:55.690Z,100559.31
2022-08-19T04:54:37.386Z,100547.69
2022-08-19T04:57:10.725Z,100554.97
2022-08-19T04:59:42.368Z,100559.22
2022-08-19T05:02:13.701Z,100562.69
2022-08-19T05:04:45.022Z,100559.41
2022-08-19T05:07:16.334Z,100560.00
2022-08-19T05:09:58.647Z,100561.75
2022-08-19T05:12:30.396Z,100552.88
2022-08-19T05:15:04.135Z,100570.00
2022-08-19T05:17:38.658Z,100559.66
2022-08-19T05:20:29.504Z,100577.97
2022-08-19T05:23:00.876Z,100575.03
2022-08-19T05:25:32.172Z,100579.38
2022-08-19T05:28:03.667Z,100573.19
2022-08-19T05:30:46.866Z,100583.66
2022-08-19T05:33:19.425Z,100570.25
2022-08-19T05:35:51.511Z,100582.09
2022-08-19T05:38:22.942Z,100584.44
2022-08-19T05:40:54.296Z,100570.19
2022-08-19T05:43:26.423Z,100583.22
2022-08-19T05:45:57.744Z,100577.03
2022-08-19T05:48:29.166Z,100575.00
2022-08-19T05:51:07.004Z,100575.78
2022-08-19T05:53:38.785Z,100575.31
2022-08-19T05:56:16.911Z,100571.84
2022-08-19T05:58:48.342Z,100579.13
2022-08-19T06:01:19.930Z,100582.00
2022-08-19T06:03:51.762Z,100570.81
2022-08-19T06:06:23.114Z,100588.59
2022-08-19T06:08:54.424Z,100584.34
2022-08-19T06:11:36.061Z,100583.47
2022-08-19T06:14:16.483Z,100576.34
2022-08-19T06:16:48.191Z,100586.00
2022-08-19T06:19:21.881Z,100577.56
2022-08-19T06:21:54.129Z,100578.25
2022-08-19T06:24:27.947Z,100577.22
2022-08-19T06:27:01.606Z,100571.16
2022-08-19T06:29:33.459Z,100589.72
2022-08-19T06:32:05.395Z,100582.44
2022-08-19T06:34:36.821Z,100582.44
2022-08-19T06:37:08.714Z,100563.66
2022-08-19T06:39:42.693Z,100569.84
2022-08-19T06:42:17.190Z,100574.34
2022-08-19T06:44:49.939Z,100575.31
2022-08-19T06:47:25.244Z,100578.78
2022-08-19T06:50:05.384Z,100576.19
2022-08-19T06:52:38.258Z,100590.22
2022-08-19T06:55:10.127Z,100580.53
2022-08-19T06:57:41.449Z,100586.47
2022-08-19T07:00:14.556Z,100585.03
2022-08-19T07:02:50.592Z,100586.44
2022-08-19T07:05:27.057Z,100587.66
2022-08-19T07:08:01.704Z,100588.88
2022-08-19T07:10:37.393Z,100595.13
2022-08-19T07:13:14.154Z,100598.25
2022-08-19T07:15:47.275Z,100602.41
2022-08-19T07:18:21.219Z,100597.97
2022-08-19T07:21:06.631Z,100603.28
2022-08-19T07:23:40.910Z,100611.72
2022-08-19T07:26:17.257Z,100621.94
2022-08-19T07:28:51.371Z,100632.88
2022-08-19T07:31:26.798Z,100632.63
2022-08-19T07:34:04.241Z,100625.34
2022-08-19T07:36:39.901Z,100628.72
2022-08-19T07:39:30.183Z,100628.63
2022-08-19T07:42:07.825Z,100630.56
2022-08-19T07:47:48.197Z,100652.25
2022-08-19T07:50:12.371Z,100649.66
2022-08-19T07:52:45.212Z,100652.25
2022-08-19T07:55:41.967Z,100637.06
2022-08-19T07:58:17.215Z,100647.84
2022-08-19T08:00:51.230Z,100653.75
2022-08-19T08:03:47.031Z,100662.59
2022-08-19T08:06:36.901Z,100656.09
2022-08-19T08:09:11.725Z,100668.50
2022-08-19T08:11:50.421Z,100664.56
2022-08-19T08:14:35.127Z,100671.19
2022-08-19T08:17:10.718Z,100662.91
2022-08-19T08:19:43.440Z,100663.63
2022-08-19T08:22:36.869Z,100662.41
2022-08-19T08:25:13.047Z,100672.72
2022-08-19T08:27:46.907Z,100683.25
2022-08-19T08:30:22.701Z,100682.88
2022-08-19T08:32:54.309Z,100680.00
2022-08-19T08:35:25.973Z,100685.56
2022-08-19T08:37:57.780Z,100680.97
2022-08-19T08:40:50.700Z,100678.63
2022-08-19T08:43:32.367Z,100669.47
2022-08-19T08:46:08.670Z,100677.28
2022-08-19T08:48:55.272Z,100671.38
2022-08-19T08:51:35.166Z,100681.22
2022-08-19T08:54:09.896Z,100676.88
2022-08-19T08:56:44.122Z,100680.66
2022-08-19T08:59:27.409Z,100678.47
2022-08-19T09:01:59.454Z,100681.88
2022-08-19T09:04:30.939Z,100673.69
2022-08-19T09:07:34.745Z,100660.28
2022-08-19T09:10:29.383Z,100675.22
2022-08-19T09:13:24.614Z,100676.78
2022-08-19T09:16:02.329Z,100674.72
2022-08-19T09:18:54.041Z,100678.47
2022-08-19T09:21:33.148Z,100667.91
2022-08-19T09:24:06.410Z,100665.31
2022-08-19T09:26:48.664Z,100672.34
2022-08-19T09:29:24.226Z,100668.09
2022-08-19T09:31:55.708Z,100673.63
2022-08-19T09:34:27.047Z,100661.59
2022-08-19T09:37:00.957Z,100672.41
2022-08-19T09:39:35.923Z,100670.25
2022-08-19T09:42:16.635Z,100667.28
2022-08-19T09:45:01.538Z,100673.09
2022-08-19T09:47:38.950Z,100675.47
2022-08-19T09:50:16.610Z,100670.78
2022-08-19T09:52:54.157Z,100685.94
2022-08-19T09:55:31.904Z,100676.53
2022-08-19T09:58:04.409Z,100680.53
2022-08-19T10:00:38.573Z,100682.22
2022-08-19T10:03:09.899Z,100690.09
2022-08-19T10:05:49.412Z,100671.81
2022-08-19T10:08:26.632Z,100666.63
2022-08-19T10:10:58.933Z,100674.09
2022-08-19T10:13:32.813Z,100673.34
2022-08-19T10:16:07.619Z,100664.78
2022-08-19T10:18:44.554Z,100659.56
2022-08-19T10:21:28.436Z,100672.34
2022-08-19T10:24:06.239Z,100675.59
2022-08-19T10:26:42.870Z,100675.91
2022-08-19T10:29:32.064Z,100676.91
2022-08-19T10:32:09.477Z,100679.63
2022-08-19T10:34:48.408Z,100673.47
2022-08-19T10:37:29.167Z,100672.16
2022-08-19T10:40:09.028Z,100669.50
2022-08-19T10:42:40.433Z,100671.09
2022-08-19T10:45:12.008Z,100671.72
2022-08-19T10:47:43.372Z,100674.31
2022-08-19T10:50:33.265Z,100673.78
2022-08-19T10:53:09.671Z,100662.72
2022-08-19T10:55:59.746Z,100673.09
2022-08-19T10:58:31.164Z,100676.59
2022-08-19T11:01:02.570Z,100684.63
2022-08-19T11:03:34.021Z,100682.03
2022-08-19T11:06:08.069Z,100682.78
2022-08-19T11:08:39.843Z,100683.56
2022-08-19T11:11:11.525Z,100673.63
2022-08-19T11:13:45.033Z,100679.72
2022-08-19T11:16:26.978Z,100673.31
2022-08-19T11:18:59.870Z,100663.06
2022-08-19T11:21:34.202Z,100665.19
2022-08-19T11:24:12.207Z,100665.19
2022-08-19T11:26:45.121Z,100657.53
2022-08-19T11:29:18.369Z,100652.25
2022-08-19T11:31:50.706Z,100649.03
2022-08-19T11:34:26.098Z,100648.19
2022-08-19T11:37:00.333Z,100660.91
2022-08-19T11:39:32.866Z,100663.75
2022-08-19T11:42:25.988Z,100653.22
2022-08-19T11:44:57.393Z,100661.25
2022-08-19T11:47:29.118Z,100648.69
2022-08-19T11:50:00.509Z,100652.75
2022-08-19T11:52:31.873Z,100652.38
2022-08-19T11:55:03.462Z,100641.16
2022-08-19T11:57:34.846Z,100657.19
2022-08-19T12:00:08.030Z,100653.25
2022-08-19T12:02:39.397Z,100659.00
2022-08-19T12:05:12.981Z,100653.47
2022-08-19T12:07:44.732Z,100647.34
2022-08-19T12:10:17.523Z,100647.81
2022-08-19T12:12:58.630Z,100639.13
2022-08-19T12:15:37.125Z,100643.13
2022-08-19T12:18:09.939Z,100643.06
2022-08-19T12:20:43.618Z,100648.72
2022-08-19T12:23:15.153Z,100647.13
2022-08-19T12:25:52.632Z,100645.06
2022-08-19T12:28:25.505Z,100639.97
2022-08-19T12:30:57.634Z,100642.31
2022-08-19T12:33:29.468Z,100650.22
2022-08-19T12:36:04.553Z,100644.09
2022-08-19T12:38:37.044Z,100648.25
2022-08-19T12:41:11.947Z,100632.44
2022-08-19T12:43:43.872Z,100639.00
2022-08-19T12:46:15.205Z,100630.34
2022-08-19T12:48:48.953Z,100640.13
2022-08-19T12:51:26.193Z,100631.84
2022-08-19T12:53:57.562Z,100627.59
2022-08-19T12:56:28.900Z,100639.44
2022-08-19T12:59:03.950Z,100627.03
2022-08-19T13:01:35.322Z,100634.41
2022-08-19T13:04:06.658Z,100630.22
2022-08-19T13:06:38.338Z,100619.00
2022-08-19T13:09:10.048Z,100626.63
2022-08-19T13:11:41.457Z,100635.28
2022-08-19T13:14:12.766Z,100632.47
2022-08-19T13:16:44.119Z,100626.78
2022-08-19T13:19:15.454Z,100626.56
2022-08-19T13:21:50.488Z,100620.13
2022-08-19T13:24:22.417Z,100627.03
2022-08-19T13:27:00.214Z,100627.38
2022-08-19T13:29:50.060Z,100620.84
2022-08-19T13:32:40.164Z,100619.59
2022-08-19T13:35:16.709Z,100612.88
2022-08-19T13:37:48.506Z,100613.53
2022-08-19T13:40:24.858Z,100625.03
2022-08-19T13:42:56.370Z,100624.81
2022-08-19T13:45:29.855Z,100617.50
2022-08-19T13:48:05.830Z,100626.41
2022-08-19T13:50:42.949Z,100629.97
2022-08-19T13:53:15.106Z,100627.88
2022-08-19T13:55:46.492Z,100629.19
2022-08-19T13:58:18.084Z,100618.72
2022-08-19T14:00:50.639Z,100623.72
2022-08-19T14:03:22.076Z,100622.19
2022-08-19T14:05:53.386Z,100614.22
2022-08-19T14:08:24.968Z,100616.06
2022-08-19T14:10:56.297Z,100618.97
2022-08-19T14:13:27.652Z,100620.31
2022-08-19T14:15:59.032Z,100614.53
2022-08-19T14:18:31.024Z,100598.47
2022-08-19T14:21:03.878Z,100599.28
2022-08-19T14:23:36.885Z,100607.84
2022-08-19T14:26:12.691Z,100600.84
2022-08-19T14:28:45.295Z,100595.97
2022-08-19T14:31:19.803Z,100592.69
2022-08-19T14:33:51.692Z,100600.94
2022-08-19T14:36:22.998Z,100598.94
2022-08-19T14:38:54.308Z,100613.88
2022-08-19T14:41:25.697Z,100611.56
2022-08-19T14:43:58.066Z,100605.53
2022-08-19T14:46:30.050Z,100599.47
2022-08-19T14:49:01.658Z,100604.72
2022-08-19T14:51:40.854Z,100609.63
2022-08-19T14:54:12.654Z,100608.63
2022-08-19T14:56:44.303Z,100613.34
2022-08-19T14:59:15.697Z,100616.81
2022-08-19T15:01:47.094Z,100617.88
2022-08-19T15:04:18.435Z,100624.44
2022-08-19T15:06:50.210Z,100625.56
2022-08-19T15:09:21.524Z,100630.03
2022-08-19T15:11:52.904Z,100638.47
2022-08-19T15:14:24.198Z,100622.53
2022-08-19T15:16:55.507Z,100635.53
2022-08-19T15:19:26.831Z,100636.66
2022-08-19T15:21:58.738Z,100638.66
2022-08-19T15:24:30.038Z,100641.63
2022-08-19T15:27:01.467Z,100645.41
2022-08-19T15:29:33.204Z,100627.16
2022-08-19T15:32:06.911Z,100640.41
2022-08-19T15:34:38.542Z,100638.81
2022-08-19T15:37:09.886Z,100637.69
2022-08-19T15:39:41.204Z,100626.03
2022-08-19T15:42:12.554Z,100624.28
2022-08-19T15:44:49.942Z,100627.16
2022-08-19T15:47:22.035Z,100636.09
2022-08-19T15:49:56.652Z,100627.34
2022-08-19T15:52:30.230Z,100641.00
2022-08-19T15:55:06.775Z,100637.19
2022-08-19T15:57:56.850Z,100628.06
2022-08-19T16:00:46.948Z,100625.59
2022-08-19T16:03:42.856Z,100619.63
2022-08-19T16:06:27.626Z,100624.84
2022-08-19T16:09:04.810Z,100625.72
2022-08-19T16:11:39.419Z,100622.00
2022-08-19T16:14:11.119Z,100628.16
2022-08-19T16:16:46.792Z,100627.44
2022-08-19T16:19:19.874Z,100621.25
2022-08-19T16:21:55.596Z,100622.25
2022-08-19T16:24:28.411Z,100614.34
2022-08-19T16:27:01.401Z,100613.09
2022-08-19T16:29:39.289Z,100622.25
2022-08-19T16:32:11.836Z,100619.53
2022-08-19T16:34:44.032Z,100618.53
2022-08-19T16:37:17.816Z,100617.69
2022-08-19T16:39:49.475Z,100616.44
2022-08-19T16:42:20.920Z,100612.38
2022-08-19T16:44:52.490Z,100610.03
2022-08-19T16:47:23.883Z,100623.72
2022-08-19T16:49:55.620Z,100622.00
2022-08-19T16:52:27.196Z,100619.16
2022-08-19T16:54:59.080Z,100618.03
2022-08-19T16:57:32.132Z,100608.28
2022-08-19T17:00:09.685Z,100614.22
2022-08-19T17:02:40.979Z,100624.97
2022-08-19T17:05:12.414Z,100625.69
2022-08-19T17:07:43.810Z,100618.28
2022-08-19T17:10:15.257Z,100612.31
2022-08-19T17:12:46.566Z,100621.69
2022-08-19T17:15:18.033Z,100621.19
2022-08-19T17:17:49.360Z,100621.66
2022-08-19T17:20:20.781Z,100614.00
2022-08-19T17:22:52.086Z,100615.97
2022-08-19T17:25:27.560Z,100619.03
2022-08-19T17:28:10.225Z,100604.09
2022-08-19T17:30:41.573Z,100621.38
2022-08-19T17:33:13.549Z,100616.91
2022-08-19T17:35:45.006Z,100617.28
2022-08-19T17:38:23.102Z,100624.91
2022-08-19T17:41:01.118Z,100620.81
2022-08-19T17:43:36.525Z,100609.69
2022-08-19T17:46:13.210Z,100610.13
2022-08-19T17:48:52.871Z,100610.22
2022-08-19T17:51:33.144Z,100615.25
2022-08-19T17:54:06.346Z,100609.53
2022-08-19T17:56:38.066Z,100605.69
2022-08-19T17:59:13.840Z,100604.91
2022-08-19T18:01:53.156Z,100602.59
2022-08-19T18:04:30.534Z,100600.34
2022-08-19T18:07:08.112Z,100600.78
2022-08-19T18:12:24.545Z,100601.94
2022-08-19T18:14:57.855Z,100600.41
2022-08-19T18:17:30.161Z,100591.19
2022-08-19T18:20:01.811Z,100603.00
2022-08-19T18:22:42.646Z,100590.91
2022-08-19T18:25:19.074Z,100597.63
2022-08-19T18:27:53.124Z,100595.69
2022-08-19T18:30:26.389Z,100592.66
2022-08-19T18:32:59.698Z,100602.19
2022-08-19T18:35:32.393Z,100595.94
2022-08-19T18:38:23.719Z,100589.25
2022-08-19T18:41:13.837Z,100592.50
2022-08-19T18:44:04.333Z,100595.59
2022-08-19T18:46:54.630Z,100595.47
2022-08-19T18:49:31.910Z,100587.13
2022-08-19T18:52:03.574Z,100594.16
2022-08-19T18:54:35.596Z,100589.78
2022-08-19T18:57:06.919Z,100589.22
2022-08-19T18:59:38.617Z,100593.31
2022-08-19T19:02:11.780Z,100594.91
2022-08-19T19:04:43.499Z,100602.63
2022-08-19T19:07:15.232Z,100606.81
2022-08-19T19:09:52.602Z,100605.72
2022-08-19T19:12:29.003Z,100610.75
2022-08-19T19:15:01.706Z,100619.25
2022-08-19T19:17:33.009Z,100612.63
2022-08-19T19:20:05.266Z,100601.06
2022-08-19T19:22:36.604Z,100617.84
2022-08-19T19:25:08.734Z,100614.78
2022-08-19T19:27:40.417Z,100629.59
2022-08-19T19:30:13.646Z,100637.28
2022-08-19T19:32:45.175Z,100638.72
2022-08-19T19:35:16.985Z,100642.84
2022-08-19T19:37:52.506Z,100640.72
2022-08-19T19:40:23.970Z,100639.75
2022-08-19T19:42:55.594Z,100638.22
2022-08-19T19:45:27.970Z,100626.44
2022-08-19T19:48:00.554Z,100640.78
2022-08-19T19:50:32.159Z,100643.94
2022-08-19T19:53:03.477Z,100641.56
2022-08-19T19:55:34.786Z,100641.25
2022-08-19T19:58:06.901Z,100645.84
2022-08-19T20:00:38.325Z,100649.94
2022-08-19T20:03:10.383Z,100655.50
2022-08-19T20:05:41.683Z,100661.25
2022-08-19T20:08:31.380Z,100666.03
2022-08-19T20:11:05.709Z,100661.97
2022-08-19T20:13:40.471Z,100669.53
2022-08-19T20:16:11.829Z,100675.25
2022-08-19T20:18:43.648Z,100671.09
2022-08-19T20:21:14.946Z,100683.00
2022-08-19T20:24:08.964Z,100689.53
2022-08-19T20:26:37.814Z,100689.88
2022-08-19T20:29:13.702Z,100696.38
2022-08-19T20:32:00.572Z,100692.97
2022-08-19T20:34:33.671Z,100692.34
2022-08-19T20:37:05.281Z,100692.66
2022-08-19T20:39:37.249Z,100690.16
2022-08-19T20:42:08.612Z,100682.56
2022-08-19T20:44:39.912Z,100679.25
2022-08-19T20:47:11.280Z,100687.25
2022-08-19T20:49:42.586Z,100686.47
2022-08-19T20:52:13.913Z,100690.19
2022-08-19T20:54:45.228Z,100685.84
2022-08-19T20:57:16.542Z,100690.44
2022-08-19T20:59:47.841Z,100687.91
2022-08-19T21:02:20.952Z,100679.13
2022-08-19T21:04:52.352Z,100670.50
2022-08-19T21:07:38.808Z,100673.19
2022-08-19T21:10:11.167Z,100680.41
2022-08-19T21:12:44.257Z,100680.47
2022-08-19T21:15:18.238Z,100680.56
2022-08-19T21:17:51.347Z,100685.06
2022-08-19T21:20:22.934Z,100683.34
2022-08-19T21:22:57.859Z,100683.34
2022-08-19T21:25:30.239Z,100671.00
2022-08-19T21:28:01.807Z,100679.16
2022-08-19T21:30:34.770Z,100672.81
2022-08-19T21:33:07.275Z,100680.03
2022-08-19T21:35:39.626Z,100677.72
2022-08-19T21:38:11.122Z,100683.03
2022-08-19T21:40:42.462Z,100693.63
2022-08-19T21:43:14.645Z,100689.34
2022-08-19T21:45:47.444Z,100686.59
2022-08-19T21:48:19.010Z,100691.09
2022-08-19T21:50:50.833Z,100683.44
2022-08-19T21:53:22.956Z,100708.19
2022-08-19T21:55:54.549Z,100688.72
2022-08-19T21:58:28.125Z,100697.59
2022-08-19T22:01:05.901Z,100689.53
2022-08-19T22:03:38.551Z,100668.47
2022-08-19T22:06:09.949Z,100679.09
2022-08-19T22:08:42.115Z,100680.97
2022-08-19T22:11:13.430Z,100680.19
2022-08-19T22:13:44.750Z,100679.41
2022-08-19T22:16:17.973Z,100680.28
2022-08-19T22:18:50.698Z,100679.50
2022-08-19T22:21:40.069Z,100688.41
2022-08-19T22:24:12.018Z,100691.09
2022-08-19T22:26:43.332Z,100692.25
2022-08-19T22:29:17.252Z,100703.59
2022-08-19T22:31:54.300Z,100715.13
2022-08-19T22:34:29.791Z,100715.13
2022-08-19T22:37:01.117Z,100711.34
2022-08-19T22:39:32.457Z,100714.66
2022-08-19T22:42:03.849Z,100716.09
2022-08-19T22:44:35.209Z,100710.72
2022-08-19T22:47:06.600Z,100713.63
2022-08-19T22:49:37.945Z,100687.75
2022-08-19T22:52:17.202Z,100704.22
2022-08-19T22:54:51.906Z,100694.16
2022-08-19T22:57:23.638Z,100695.81
2022-08-19T22:59:58.908Z,100695.56
2022-08-19T23:02:38.330Z,100688.19
2022-08-19T23:05:10.988Z,100698.88
2022-08-19T23:07:42.327Z,100702.28
2022-08-19T23:10:27.485Z,100693.16
2022-08-19T23:13:00.197Z,100693.88
2022-08-19T23:15:32.476Z,100693.69
2022-08-19T23:18:04.704Z,100693.53
2022-08-19T23:20:38.613Z,100687.28
2022-08-19T23:23:18.676Z,100690.69
2022-08-19T23:25:52.200Z,100690.47
2022-08-19T23:28:41.990Z,100695.75
2022-08-19T23:31:13.382Z,100696.53
2022-08-19T23:33:51.387Z,100691.16
2022-08-19T23:36:23.591Z,100690.22
2022-08-19T23:38:55.293Z,100677.88
2022-08-19T23:41:29.800Z,100683.31
2022-08-19T23:44:01.124Z,100686.25
2022-08-19T23:46:32.497Z,100681.03
2022-08-19T23:49:21.973Z,100682.06
2022-08-19T23:51:54.610Z,100670.34
2022-08-19T23:54:27.451Z,100675.56
2022-08-19T23:57:14.984Z,100682.28
2022-08-19T23:59:46.364Z,100672.31
